sensor_id;sensor_type;location;lat;lon;timestamp;P1;durP1;ratioP1;P2;durP2;ratioP2
6495;SDS011;3281;47.658;9.166;2022-10-26T00:00:45;0.00;;;0.00;;
6495;SDS011;3281;47.658;9.166;2022-10-26T00:03:12;0.00;;;0.00;;
6495;SDS011;3281;47.658;9.166;2022-10-26T00:05:39;0.00;;;0.00;;
6495;SDS011;3281;47.658;9.166;2022-10-26T00:08:06;0.00;;;0.00;;
6495;SDS011;3281;47.658;9.166;2022-10-26T00:10:33;0.00;;;0.00;;
6495;SDS011;3281;47.658;9.166;2022-10-26T00:13:03;0.00;;;0.00;;
6495;SDS011;3281;47.658;9.166;2022-10-26T00:15:33;0.00;;;0.00;;
6495;SDS011;3281;47.658;9.166;2022-10-26T00:18:00;0.00;;;0.00;;
6495;SDS011;3281;47.658;9.166;2022-10-26T00:20:27;0.00;;;0.00;;
6495;SDS011;3281;47.658;9.166;2022-10-26T00:22:53;0.00;;;0.00;;
6495;SDS011;3281;47.658;9.166;2022-10-26T00:25:20;0.00;;;0.00;;
6495;SDS011;3281;47.658;9.166;2022-10-26T00:27:47;0.00;;;0.00;;
6495;SDS011;3281;47.658;9.166;2022-10-26T00:30:15;0.00;;;0.00;;
6495;SDS011;3281;47.658;9.166;2022-10-26T00:32:41;0.07;;;0.07;;
6495;SDS011;3281;47.658;9.166;2022-10-26T00:35:08;0.00;;;0.00;;
6495;SDS011;3281;47.658;9.166;2022-10-26T00:37:35;0.00;;;0.00;;
6495;SDS011;3281;47.658;9.166;2022-10-26T00:40:02;0.00;;;0.00;;
6495;SDS011;3281;47.658;9.166;2022-10-26T00:42:29;0.00;;;0.00;;
6495;SDS011;3281;47.658;9.166;2022-10-26T00:45:00;0.00;;;0.00;;
6495;SDS011;3281;47.658;9.166;2022-10-26T00:47:33;0.00;;;0.00;;
6495;SDS011;3281;47.658;9.166;2022-10-26T00:50:05;0.00;;;0.00;;
6495;SDS011;3281;47.658;9.166;2022-10-26T00:52:35;0.00;;;0.00;;
6495;SDS011;3281;47.658;9.166;2022-10-26T00:55:04;0.10;;;0.10;;
6495;SDS011;3281;47.658;9.166;2022-10-26T00:57:32;0.00;;;0.00;;
6495;SDS011;3281;47.658;9.166;2022-10-26T01:00:01;0.00;;;0.00;;
6495;SDS011;3281;47.658;9.166;2022-10-26T01:02:29;0.00;;;0.00;;
6495;SDS011;3281;47.658;9.166;2022-10-26T01:04:57;0.00;;;0.00;;
6495;SDS011;3281;47.658;9.166;2022-10-26T01:07:26;0.00;;;0.00;;
6495;SDS011;3281;47.658;9.166;2022-10-26T01:09:53;0.00;;;0.00;;
6495;SDS011;3281;47.658;9.166;2022-10-26T01:12:20;0.10;;;0.10;;
6495;SDS011;3281;47.658;9.166;2022-10-26T01:14:47;0.00;;;0.00;;
6495;SDS011;3281;47.658;9.166;2022-10-26T01:17:24;0.00;;;0.00;;
6495;SDS011;3281;47.658;9.166;2022-10-26T01:20:20;0.00;;;0.00;;
6495;SDS011;3281;47.658;9.166;2022-10-26T01:23:06;0.00;;;0.00;;
6495;SDS011;3281;47.658;9.166;2022-10-26T01:28:36;0.00;;;0.00;;
6495;SDS011;3281;47.658;9.166;2022-10-26T01:31:18;0.00;;;0.00;;
6495;SDS011;3281;47.658;9.166;2022-10-26T01:33:54;0.00;;;0.00;;
6495;SDS011;3281;47.658;9.166;2022-10-26T01:36:25;0.00;;;0.00;;
6495;SDS011;3281;47.658;9.166;2022-10-26T01:38:58;0.00;;;0.00;;
6495;SDS011;3281;47.658;9.166;2022-10-26T01:41:31;0.00;;;0.00;;
6495;SDS011;3281;47.658;9.166;2022-10-26T01:44:03;2.63;;;1.40;;
6495;SDS011;3281;47.658;9.166;2022-10-26T01:46:34;1.33;;;1.27;;
6495;SDS011;3281;47.658;9.166;2022-10-26T01:49:04;1.73;;;1.53;;
6495;SDS011;3281;47.658;9.166;2022-10-26T01:51:33;2.10;;;2.00;;
6495;SDS011;3281;47.658;9.166;2022-10-26T01:54:01;1.73;;;1.63;;
6495;SDS011;3281;47.658;9.166;2022-10-26T01:56:28;0.87;;;0.87;;
6495;SDS011;3281;47.658;9.166;2022-10-26T02:02:02;1.13;;;1.13;;
6495;SDS011;3281;47.658;9.166;2022-10-26T02:04:57;1.30;;;1.30;;
6495;SDS011;3281;47.658;9.166;2022-10-26T02:07:37;1.43;;;1.37;;
6495;SDS011;3281;47.658;9.166;2022-10-26T02:10:17;1.83;;;1.70;;
6495;SDS011;3281;47.658;9.166;2022-10-26T02:12:58;0.00;;;0.00;;
6495;SDS011;3281;47.658;9.166;2022-10-26T02:15:30;0.00;;;0.00;;
6495;SDS011;3281;47.658;9.166;2022-10-26T02:18:04;0.00;;;0.00;;
6495;SDS011;3281;47.658;9.166;2022-10-26T02:20:39;0.00;;;0.00;;
6495;SDS011;3281;47.658;9.166;2022-10-26T02:23:09;0.00;;;0.00;;
6495;SDS011;3281;47.658;9.166;2022-10-26T02:25:38;0.00;;;0.00;;
6495;SDS011;3281;47.658;9.166;2022-10-26T02:28:10;0.00;;;0.00;;
6495;SDS011;3281;47.658;9.166;2022-10-26T02:30:40;0.00;;;0.00;;
6495;SDS011;3281;47.658;9.166;2022-10-26T02:33:10;0.00;;;0.00;;
6495;SDS011;3281;47.658;9.166;2022-10-26T02:35:39;0.00;;;0.00;;
6495;SDS011;3281;47.658;9.166;2022-10-26T02:38:08;0.00;;;0.00;;
6495;SDS011;3281;47.658;9.166;2022-10-26T02:40:37;0.00;;;0.00;;
6495;SDS011;3281;47.658;9.166;2022-10-26T02:43:05;0.00;;;0.00;;
6495;SDS011;3281;47.658;9.166;2022-10-26T02:45:38;0.00;;;0.00;;
6495;SDS011;3281;47.658;9.166;2022-10-26T02:48:10;0.00;;;0.00;;
6495;SDS011;3281;47.658;9.166;2022-10-26T02:50:38;0.00;;;0.00;;
6495;SDS011;3281;47.658;9.166;2022-10-26T02:53:09;0.00;;;0.00;;
6495;SDS011;3281;47.658;9.166;2022-10-26T02:55:45;0.00;;;0.00;;
6495;SDS011;3281;47.658;9.166;2022-10-26T02:58:15;0.00;;;0.00;;
6495;SDS011;3281;47.658;9.166;2022-10-26T03:00:47;0.00;;;0.00;;
6495;SDS011;3281;47.658;9.166;2022-10-26T03:03:17;0.00;;;0.00;;
6495;SDS011;3281;47.658;9.166;2022-10-26T03:05:44;0.00;;;0.00;;
6495;SDS011;3281;47.658;9.166;2022-10-26T03:08:11;0.00;;;0.00;;
6495;SDS011;3281;47.658;9.166;2022-10-26T03:10:39;0.00;;;0.00;;
6495;SDS011;3281;47.658;9.166;2022-10-26T03:13:07;0.00;;;0.00;;
6495;SDS011;3281;47.658;9.166;2022-10-26T03:15:34;0.00;;;0.00;;
6495;SDS011;3281;47.658;9.166;2022-10-26T03:18:01;0.00;;;0.00;;
6495;SDS011;3281;47.658;9.166;2022-10-26T03:20:29;0.00;;;0.00;;
6495;SDS011;3281;47.658;9.166;2022-10-26T03:22:56;0.00;;;0.00;;
6495;SDS011;3281;47.658;9.166;2022-10-26T03:25:22;0.00;;;0.00;;
6495;SDS011;3281;47.658;9.166;2022-10-26T03:27:54;0.00;;;0.00;;
6495;SDS011;3281;47.658;9.166;2022-10-26T03:30:22;0.00;;;0.00;;
6495;SDS011;3281;47.658;9.166;2022-10-26T03:32:49;1.10;;;1.10;;
6495;SDS011;3281;47.658;9.166;2022-10-26T03:35:16;0.30;;;0.30;;
6495;SDS011;3281;47.658;9.166;2022-10-26T03:37:44;0.00;;;0.00;;
6495;SDS011;3281;47.658;9.166;2022-10-26T03:40:11;0.00;;;0.00;;
6495;SDS011;3281;47.658;9.166;2022-10-26T03:42:38;0.00;;;0.00;;
6495;SDS011;3281;47.658;9.166;2022-10-26T03:45:06;1.17;;;0.63;;
6495;SDS011;3281;47.658;9.166;2022-10-26T03:47:33;1.97;;;1.87;;
6495;SDS011;3281;47.658;9.166;2022-10-26T03:50:07;2.23;;;2.13;;
6495;SDS011;3281;47.658;9.166;2022-10-26T03:52:35;0.00;;;0.00;;
6495;SDS011;3281;47.658;9.166;2022-10-26T03:55:03;0.00;;;0.00;;
6495;SDS011;3281;47.658;9.166;2022-10-26T03:57:30;0.10;;;0.10;;
6495;SDS011;3281;47.658;9.166;2022-10-26T03:59:57;0.00;;;0.00;;
6495;SDS011;3281;47.658;9.166;2022-10-26T04:02:24;0.00;;;0.00;;
6495;SDS011;3281;47.658;9.166;2022-10-26T04:04:50;0.00;;;0.00;;
6495;SDS011;3281;47.658;9.166;2022-10-26T04:07:17;0.00;;;0.00;;
6495;SDS011;3281;47.658;9.166;2022-10-26T04:09:44;0.00;;;0.00;;
6495;SDS011;3281;47.658;9.166;2022-10-26T04:12:12;0.00;;;0.00;;
6495;SDS011;3281;47.658;9.166;2022-10-26T04:14:38;0.00;;;0.00;;
6495;SDS011;3281;47.658;9.166;2022-10-26T04:17:05;0.00;;;0.00;;
6495;SDS011;3281;47.658;9.166;2022-10-26T04:19:32;2.57;;;2.37;;
6495;SDS011;3281;47.658;9.166;2022-10-26T04:21:59;1.30;;;1.10;;
6495;SDS011;3281;47.658;9.166;2022-10-26T04:24:25;0.00;;;0.00;;
6495;SDS011;3281;47.658;9.166;2022-10-26T04:26:52;0.00;;;0.00;;
6495;SDS011;3281;47.658;9.166;2022-10-26T04:29:20;0.00;;;0.00;;
6495;SDS011;3281;47.658;9.166;2022-10-26T04:31:47;0.00;;;0.00;;
6495;SDS011;3281;47.658;9.166;2022-10-26T04:34:13;0.00;;;0.00;;
6495;SDS011;3281;47.658;9.166;2022-10-26T04:36:40;0.00;;;0.00;;
6495;SDS011;3281;47.658;9.166;2022-10-26T04:39:07;0.10;;;0.10;;
6495;SDS011;3281;47.658;9.166;2022-10-26T04:41:34;0.00;;;0.00;;
6495;SDS011;3281;47.658;9.166;2022-10-26T04:44:00;0.00;;;0.00;;
6495;SDS011;3281;47.658;9.166;2022-10-26T04:46:28;0.00;;;0.00;;
6495;SDS011;3281;47.658;9.166;2022-10-26T04:48:55;0.00;;;0.00;;
6495;SDS011;3281;47.658;9.166;2022-10-26T04:51:22;0.00;;;0.00;;
6495;SDS011;3281;47.658;9.166;2022-10-26T04:53:49;0.00;;;0.00;;
6495;SDS011;3281;47.658;9.166;2022-10-26T04:56:18;0.00;;;0.00;;
6495;SDS011;3281;47.658;9.166;2022-10-26T04:58:45;0.00;;;0.00;;
6495;SDS011;3281;47.658;9.166;2022-10-26T05:01:11;0.00;;;0.00;;
6495;SDS011;3281;47.658;9.166;2022-10-26T05:03:39;0.00;;;0.00;;
6495;SDS011;3281;47.658;9.166;2022-10-26T05:06:06;0.00;;;0.00;;
6495;SDS011;3281;47.658;9.166;2022-10-26T05:08:33;0.10;;;0.10;;
6495;SDS011;3281;47.658;9.166;2022-10-26T05:10:59;0.00;;;0.00;;
6495;SDS011;3281;47.658;9.166;2022-10-26T05:13:26;0.00;;;0.00;;
6495;SDS011;3281;47.658;9.166;2022-10-26T05:15:53;0.00;;;0.00;;
6495;SDS011;3281;47.658;9.166;2022-10-26T05:18:20;0.00;;;0.00;;
6495;SDS011;3281;47.658;9.166;2022-10-26T05:20:51;0.00;;;0.00;;
6495;SDS011;3281;47.658;9.166;2022-10-26T05:23:18;0.00;;;0.00;;
6495;SDS011;3281;47.658;9.166;2022-10-26T05:25:45;0.00;;;0.00;;
6495;SDS011;3281;47.658;9.166;2022-10-26T05:28:12;0.00;;;0.00;;
6495;SDS011;3281;47.658;9.166;2022-10-26T05:30:39;0.00;;;0.00;;
6495;SDS011;3281;47.658;9.166;2022-10-26T05:33:07;0.00;;;0.00;;
6495;SDS011;3281;47.658;9.166;2022-10-26T05:35:36;0.00;;;0.00;;
6495;SDS011;3281;47.658;9.166;2022-10-26T05:38:06;0.00;;;0.00;;
6495;SDS011;3281;47.658;9.166;2022-10-26T05:40:33;0.00;;;0.00;;
6495;SDS011;3281;47.658;9.166;2022-10-26T05:43:00;0.00;;;0.00;;
6495;SDS011;3281;47.658;9.166;2022-10-26T05:45:28;0.10;;;0.10;;
6495;SDS011;3281;47.658;9.166;2022-10-26T05:47:55;0.00;;;0.00;;
6495;SDS011;3281;47.658;9.166;2022-10-26T05:50:22;0.00;;;0.00;;
6495;SDS011;3281;47.658;9.166;2022-10-26T05:52:48;0.00;;;0.00;;
6495;SDS011;3281;47.658;9.166;2022-10-26T05:55:17;0.00;;;0.00;;
6495;SDS011;3281;47.658;9.166;2022-10-26T05:57:44;0.00;;;0.00;;
6495;SDS011;3281;47.658;9.166;2022-10-26T06:00:14;0.00;;;0.00;;
6495;SDS011;3281;47.658;9.166;2022-10-26T06:02:46;0.00;;;0.00;;
6495;SDS011;3281;47.658;9.166;2022-10-26T06:05:21;0.00;;;0.00;;
6495;SDS011;3281;47.658;9.166;2022-10-26T06:07:50;0.00;;;0.00;;
6495;SDS011;3281;47.658;9.166;2022-10-26T06:10:19;0.00;;;0.00;;
6495;SDS011;3281;47.658;9.166;2022-10-26T06:12:46;0.00;;;0.00;;
6495;SDS011;3281;47.658;9.166;2022-10-26T06:15:14;0.00;;;0.00;;
6495;SDS011;3281;47.658;9.166;2022-10-26T06:17:45;0.10;;;0.10;;
6495;SDS011;3281;47.658;9.166;2022-10-26T06:20:25;0.00;;;0.00;;
6495;SDS011;3281;47.658;9.166;2022-10-26T06:23:05;0.00;;;0.00;;
6495;SDS011;3281;47.658;9.166;2022-10-26T06:25:45;0.00;;;0.00;;
6495;SDS011;3281;47.658;9.166;2022-10-26T06:28:22;0.00;;;0.00;;
6495;SDS011;3281;47.658;9.166;2022-10-26T06:30:56;0.00;;;0.00;;
6495;SDS011;3281;47.658;9.166;2022-10-26T06:33:23;0.00;;;0.00;;
6495;SDS011;3281;47.658;9.166;2022-10-26T06:35:54;0.00;;;0.00;;
6495;SDS011;3281;47.658;9.166;2022-10-26T06:38:29;0.00;;;0.00;;
6495;SDS011;3281;47.658;9.166;2022-10-26T06:41:00;0.00;;;0.00;;
6495;SDS011;3281;47.658;9.166;2022-10-26T06:43:30;0.00;;;0.00;;
6495;SDS011;3281;47.658;9.166;2022-10-26T06:45:59;0.00;;;0.00;;
6495;SDS011;3281;47.658;9.166;2022-10-26T06:48:33;0.00;;;0.00;;
6495;SDS011;3281;47.658;9.166;2022-10-26T06:51:08;0.00;;;0.00;;
6495;SDS011;3281;47.658;9.166;2022-10-26T06:53:40;0.00;;;0.00;;
6495;SDS011;3281;47.658;9.166;2022-10-26T06:56:13;0.00;;;0.00;;
6495;SDS011;3281;47.658;9.166;2022-10-26T06:58:41;0.00;;;0.00;;
6495;SDS011;3281;47.658;9.166;2022-10-26T07:01:10;0.00;;;0.00;;
6495;SDS011;3281;47.658;9.166;2022-10-26T07:03:38;0.00;;;0.00;;
6495;SDS011;3281;47.658;9.166;2022-10-26T07:06:05;0.10;;;0.10;;
6495;SDS011;3281;47.658;9.166;2022-10-26T07:08:32;0.00;;;0.00;;
6495;SDS011;3281;47.658;9.166;2022-10-26T07:10:59;0.00;;;0.00;;
6495;SDS011;3281;47.658;9.166;2022-10-26T07:13:27;0.00;;;0.00;;
6495;SDS011;3281;47.658;9.166;2022-10-26T07:15:54;0.00;;;0.00;;
6495;SDS011;3281;47.658;9.166;2022-10-26T07:18:21;0.00;;;0.00;;
6495;SDS011;3281;47.658;9.166;2022-10-26T07:20:47;0.00;;;0.00;;
6495;SDS011;3281;47.658;9.166;2022-10-26T07:23:14;0.00;;;0.00;;
6495;SDS011;3281;47.658;9.166;2022-10-26T07:25:41;0.00;;;0.00;;
6495;SDS011;3281;47.658;9.166;2022-10-26T07:28:08;0.00;;;0.00;;
6495;SDS011;3281;47.658;9.166;2022-10-26T07:30:37;0.00;;;0.00;;
6495;SDS011;3281;47.658;9.166;2022-10-26T07:33:05;0.00;;;0.00;;
6495;SDS011;3281;47.658;9.166;2022-10-26T07:35:33;0.00;;;0.00;;
6495;SDS011;3281;47.658;9.166;2022-10-26T07:38:00;0.00;;;0.00;;
6495;SDS011;3281;47.658;9.166;2022-10-26T07:40:27;0.00;;;0.00;;
6495;SDS011;3281;47.658;9.166;2022-10-26T07:42:55;0.00;;;0.00;;
6495;SDS011;3281;47.658;9.166;2022-10-26T07:45:23;0.00;;;0.00;;
6495;SDS011;3281;47.658;9.166;2022-10-26T07:47:51;0.00;;;0.00;;
6495;SDS011;3281;47.658;9.166;2022-10-26T07:50:18;0.00;;;0.00;;
6495;SDS011;3281;47.658;9.166;2022-10-26T07:52:45;0.00;;;0.00;;
6495;SDS011;3281;47.658;9.166;2022-10-26T07:55:11;0.00;;;0.00;;
6495;SDS011;3281;47.658;9.166;2022-10-26T07:57:38;0.00;;;0.00;;
6495;SDS011;3281;47.658;9.166;2022-10-26T08:00:06;0.00;;;0.00;;
6495;SDS011;3281;47.658;9.166;2022-10-26T08:02:33;0.00;;;0.00;;
6495;SDS011;3281;47.658;9.166;2022-10-26T08:05:02;0.00;;;0.00;;
6495;SDS011;3281;47.658;9.166;2022-10-26T08:07:29;0.00;;;0.00;;
6495;SDS011;3281;47.658;9.166;2022-10-26T08:09:55;0.00;;;0.00;;
6495;SDS011;3281;47.658;9.166;2022-10-26T08:12:22;0.00;;;0.00;;
6495;SDS011;3281;47.658;9.166;2022-10-26T08:14:49;0.00;;;0.00;;
6495;SDS011;3281;47.658;9.166;2022-10-26T08:17:15;0.00;;;0.00;;
6495;SDS011;3281;47.658;9.166;2022-10-26T08:19:46;0.67;;;0.57;;
6495;SDS011;3281;47.658;9.166;2022-10-26T08:22:14;0.00;;;0.00;;
6495;SDS011;3281;47.658;9.166;2022-10-26T08:24:41;0.00;;;0.00;;
6495;SDS011;3281;47.658;9.166;2022-10-26T08:27:08;0.00;;;0.00;;
6495;SDS011;3281;47.658;9.166;2022-10-26T08:29:34;0.00;;;0.00;;
6495;SDS011;3281;47.658;9.166;2022-10-26T08:32:01;0.00;;;0.00;;
6495;SDS011;3281;47.658;9.166;2022-10-26T08:34:28;0.00;;;0.00;;
6495;SDS011;3281;47.658;9.166;2022-10-26T08:36:55;0.00;;;0.00;;
6495;SDS011;3281;47.658;9.166;2022-10-26T08:39:23;0.00;;;0.00;;
6495;SDS011;3281;47.658;9.166;2022-10-26T08:41:53;0.00;;;0.00;;
6495;SDS011;3281;47.658;9.166;2022-10-26T08:44:27;0.00;;;0.00;;
6495;SDS011;3281;47.658;9.166;2022-10-26T08:46:58;0.00;;;0.00;;
6495;SDS011;3281;47.658;9.166;2022-10-26T08:49:31;0.00;;;0.00;;
6495;SDS011;3281;47.658;9.166;2022-10-26T08:52:06;0.00;;;0.00;;
6495;SDS011;3281;47.658;9.166;2022-10-26T08:54:39;0.00;;;0.00;;
6495;SDS011;3281;47.658;9.166;2022-10-26T08:57:11;0.00;;;0.00;;
6495;SDS011;3281;47.658;9.166;2022-10-26T08:59:43;0.00;;;0.00;;
6495;SDS011;3281;47.658;9.166;2022-10-26T09:02:14;0.00;;;0.00;;
6495;SDS011;3281;47.658;9.166;2022-10-26T09:04:42;0.00;;;0.00;;
6495;SDS011;3281;47.658;9.166;2022-10-26T09:07:11;0.00;;;0.00;;
6495;SDS011;3281;47.658;9.166;2022-10-26T09:09:53;0.00;;;0.00;;
6495;SDS011;3281;47.658;9.166;2022-10-26T09:12:27;0.00;;;0.00;;
6495;SDS011;3281;47.658;9.166;2022-10-26T09:15:07;0.00;;;0.00;;
6495;SDS011;3281;47.658;9.166;2022-10-26T09:17:41;0.00;;;0.00;;
6495;SDS011;3281;47.658;9.166;2022-10-26T09:23:07;0.00;;;0.00;;
6495;SDS011;3281;47.658;9.166;2022-10-26T09:25:49;0.00;;;0.00;;
6495;SDS011;3281;47.658;9.166;2022-10-26T09:28:22;0.00;;;0.00;;
6495;SDS011;3281;47.658;9.166;2022-10-26T09:30:49;0.00;;;0.00;;
6495;SDS011;3281;47.658;9.166;2022-10-26T09:33:16;0.00;;;0.00;;
6495;SDS011;3281;47.658;9.166;2022-10-26T09:35:47;0.00;;;0.00;;
6495;SDS011;3281;47.658;9.166;2022-10-26T09:38:19;0.00;;;0.00;;
6495;SDS011;3281;47.658;9.166;2022-10-26T09:40:52;0.00;;;0.00;;
6495;SDS011;3281;47.658;9.166;2022-10-26T09:43:24;0.00;;;0.00;;
6495;SDS011;3281;47.658;9.166;2022-10-26T09:45:53;0.00;;;0.00;;
6495;SDS011;3281;47.658;9.166;2022-10-26T09:48:21;0.00;;;0.00;;
6495;SDS011;3281;47.658;9.166;2022-10-26T09:50:54;0.00;;;0.00;;
6495;SDS011;3281;47.658;9.166;2022-10-26T09:53:23;0.00;;;0.00;;
6495;SDS011;3281;47.658;9.166;2022-10-26T09:55:53;0.00;;;0.00;;
6495;SDS011;3281;47.658;9.166;2022-10-26T09:58:27;0.00;;;0.00;;
6495;SDS011;3281;47.658;9.166;2022-10-26T10:00:56;0.00;;;0.00;;
6495;SDS011;3281;47.658;9.166;2022-10-26T10:03:24;0.00;;;0.00;;
6495;SDS011;3281;47.658;9.166;2022-10-26T10:05:52;0.00;;;0.00;;
6495;SDS011;3281;47.658;9.166;2022-10-26T10:08:38;0.00;;;0.00;;
6495;SDS011;3281;47.658;9.166;2022-10-26T10:11:07;0.00;;;0.00;;
6495;SDS011;3281;47.658;9.166;2022-10-26T10:13:37;0.00;;;0.00;;
6495;SDS011;3281;47.658;9.166;2022-10-26T10:16:05;0.00;;;0.00;;
6495;SDS011;3281;47.658;9.166;2022-10-26T10:18:36;0.00;;;0.00;;
6495;SDS011;3281;47.658;9.166;2022-10-26T10:21:04;0.00;;;0.00;;
6495;SDS011;3281;47.658;9.166;2022-10-26T10:23:32;0.00;;;0.00;;
6495;SDS011;3281;47.658;9.166;2022-10-26T10:26:02;0.00;;;0.00;;
6495;SDS011;3281;47.658;9.166;2022-10-26T10:28:32;0.00;;;0.00;;
6495;SDS011;3281;47.658;9.166;2022-10-26T10:31:00;0.00;;;0.00;;
6495;SDS011;3281;47.658;9.166;2022-10-26T10:33:35;0.00;;;0.00;;
6495;SDS011;3281;47.658;9.166;2022-10-26T10:36:04;0.00;;;0.00;;
6495;SDS011;3281;47.658;9.166;2022-10-26T10:38:35;0.00;;;0.00;;
6495;SDS011;3281;47.658;9.166;2022-10-26T10:41:04;0.00;;;0.00;;
6495;SDS011;3281;47.658;9.166;2022-10-26T10:43:45;0.00;;;0.00;;
6495;SDS011;3281;47.658;9.166;2022-10-26T10:46:18;0.00;;;0.00;;
6495;SDS011;3281;47.658;9.166;2022-10-26T10:48:49;0.00;;;0.00;;
6495;SDS011;3281;47.658;9.166;2022-10-26T10:51:20;0.00;;;0.00;;
6495;SDS011;3281;47.658;9.166;2022-10-26T10:53:49;0.00;;;0.00;;
6495;SDS011;3281;47.658;9.166;2022-10-26T10:56:30;0.00;;;0.00;;
6495;SDS011;3281;47.658;9.166;2022-10-26T10:59:03;0.00;;;0.00;;
6495;SDS011;3281;47.658;9.166;2022-10-26T11:01:48;0.00;;;0.00;;
6495;SDS011;3281;47.658;9.166;2022-10-26T11:04:37;0.00;;;0.00;;
6495;SDS011;3281;47.658;9.166;2022-10-26T11:07:18;0.00;;;0.00;;
6495;SDS011;3281;47.658;9.166;2022-10-26T11:09:47;0.00;;;0.00;;
6495;SDS011;3281;47.658;9.166;2022-10-26T11:12:16;0.00;;;0.00;;
6495;SDS011;3281;47.658;9.166;2022-10-26T11:14:49;0.00;;;0.00;;
6495;SDS011;3281;47.658;9.166;2022-10-26T11:17:22;0.00;;;0.00;;
6495;SDS011;3281;47.658;9.166;2022-10-26T11:19:52;0.00;;;0.00;;
6495;SDS011;3281;47.658;9.166;2022-10-26T11:22:23;0.00;;;0.00;;
6495;SDS011;3281;47.658;9.166;2022-10-26T11:24:53;0.00;;;0.00;;
6495;SDS011;3281;47.658;9.166;2022-10-26T11:27:26;0.00;;;0.00;;
6495;SDS011;3281;47.658;9.166;2022-10-26T11:29:59;0.00;;;0.00;;
6495;SDS011;3281;47.658;9.166;2022-10-26T11:32:30;0.00;;;0.00;;
6495;SDS011;3281;47.658;9.166;2022-10-26T11:35:03;0.00;;;0.00;;
6495;SDS011;3281;47.658;9.166;2022-10-26T11:37:38;0.00;;;0.00;;
6495;SDS011;3281;47.658;9.166;2022-10-26T11:43:05;0.00;;;0.00;;
6495;SDS011;3281;47.658;9.166;2022-10-26T11:45:40;0.00;;;0.00;;
6495;SDS011;3281;47.658;9.166;2022-10-26T11:48:11;0.00;;;0.00;;
6495;SDS011;3281;47.658;9.166;2022-10-26T11:50:42;0.00;;;0.00;;
6495;SDS011;3281;47.658;9.166;2022-10-26T11:53:14;0.00;;;0.00;;
6495;SDS011;3281;47.658;9.166;2022-10-26T11:55:44;0.00;;;0.00;;
6495;SDS011;3281;47.658;9.166;2022-10-26T11:58:14;0.00;;;0.00;;
6495;SDS011;3281;47.658;9.166;2022-10-26T12:00:44;0.00;;;0.00;;
6495;SDS011;3281;47.658;9.166;2022-10-26T12:03:15;0.00;;;0.00;;
6495;SDS011;3281;47.658;9.166;2022-10-26T12:05:47;0.00;;;0.00;;
6495;SDS011;3281;47.658;9.166;2022-10-26T12:08:17;0.00;;;0.00;;
6495;SDS011;3281;47.658;9.166;2022-10-26T12:10:49;0.00;;;0.00;;
6495;SDS011;3281;47.658;9.166;2022-10-26T12:13:22;0.00;;;0.00;;
6495;SDS011;3281;47.658;9.166;2022-10-26T12:15:55;0.00;;;0.00;;
6495;SDS011;3281;47.658;9.166;2022-10-26T12:18:29;0.00;;;0.00;;
6495;SDS011;3281;47.658;9.166;2022-10-26T12:21:02;0.00;;;0.00;;
6495;SDS011;3281;47.658;9.166;2022-10-26T12:23:32;0.00;;;0.00;;
6495;SDS011;3281;47.658;9.166;2022-10-26T12:29:23;0.00;;;0.00;;
6495;SDS011;3281;47.658;9.166;2022-10-26T12:32:03;0.00;;;0.00;;
6495;SDS011;3281;47.658;9.166;2022-10-26T12:34:59;0.00;;;0.00;;
6495;SDS011;3281;47.658;9.166;2022-10-26T12:37:34;0.00;;;0.00;;
6495;SDS011;3281;47.658;9.166;2022-10-26T12:43:31;0.00;;;0.00;;
6495;SDS011;3281;47.658;9.166;2022-10-26T12:52:15;0.00;;;0.00;;
6495;SDS011;3281;47.658;9.166;2022-10-26T12:54:45;0.00;;;0.00;;
6495;SDS011;3281;47.658;9.166;2022-10-26T12:57:22;0.00;;;0.00;;
6495;SDS011;3281;47.658;9.166;2022-10-26T12:59:56;0.00;;;0.00;;
6495;SDS011;3281;47.658;9.166;2022-10-26T13:02:32;0.00;;;0.00;;
6495;SDS011;3281;47.658;9.166;2022-10-26T13:05:23;0.00;;;0.00;;
6495;SDS011;3281;47.658;9.166;2022-10-26T13:08:04;0.00;;;0.00;;
6495;SDS011;3281;47.658;9.166;2022-10-26T13:10:33;0.00;;;0.00;;
6495;SDS011;3281;47.658;9.166;2022-10-26T13:13:01;0.00;;;0.00;;
6495;SDS011;3281;47.658;9.166;2022-10-26T13:15:32;0.00;;;0.00;;
6495;SDS011;3281;47.658;9.166;2022-10-26T13:18:06;0.00;;;0.00;;
6495;SDS011;3281;47.658;9.166;2022-10-26T13:20:36;0.00;;;0.00;;
6495;SDS011;3281;47.658;9.166;2022-10-26T13:23:19;0.00;;;0.00;;
6495;SDS011;3281;47.658;9.166;2022-10-26T13:26:00;0.00;;;0.00;;
6495;SDS011;3281;47.658;9.166;2022-10-26T13:28:34;0.00;;;0.00;;
6495;SDS011;3281;47.658;9.166;2022-10-26T13:31:11;0.00;;;0.00;;
6495;SDS011;3281;47.658;9.166;2022-10-26T13:33:45;0.00;;;0.00;;
6495;SDS011;3281;47.658;9.166;2022-10-26T13:36:16;0.00;;;0.00;;
6495;SDS011;3281;47.658;9.166;2022-10-26T13:38:49;0.00;;;0.00;;
6495;SDS011;3281;47.658;9.166;2022-10-26T13:41:19;0.00;;;0.00;;
6495;SDS011;3281;47.658;9.166;2022-10-26T13:43:52;0.00;;;0.00;;
6495;SDS011;3281;47.658;9.166;2022-10-26T13:46:24;0.00;;;0.00;;
6495;SDS011;3281;47.658;9.166;2022-10-26T13:48:53;0.00;;;0.00;;
6495;SDS011;3281;47.658;9.166;2022-10-26T13:51:29;0.00;;;0.00;;
6495;SDS011;3281;47.658;9.166;2022-10-26T13:54:02;0.00;;;0.00;;
6495;SDS011;3281;47.658;9.166;2022-10-26T13:56:39;0.00;;;0.00;;
6495;SDS011;3281;47.658;9.166;2022-10-26T13:59:09;0.00;;;0.00;;
6495;SDS011;3281;47.658;9.166;2022-10-26T14:01:38;0.00;;;0.00;;
6495;SDS011;3281;47.658;9.166;2022-10-26T14:04:13;0.00;;;0.00;;
6495;SDS011;3281;47.658;9.166;2022-10-26T14:06:40;0.00;;;0.00;;
6495;SDS011;3281;47.658;9.166;2022-10-26T14:09:14;0.00;;;0.00;;
6495;SDS011;3281;47.658;9.166;2022-10-26T14:11:43;0.00;;;0.00;;
6495;SDS011;3281;47.658;9.166;2022-10-26T14:14:13;0.00;;;0.00;;
6495;SDS011;3281;47.658;9.166;2022-10-26T14:16:44;0.00;;;0.00;;
6495;SDS011;3281;47.658;9.166;2022-10-26T14:19:13;0.00;;;0.00;;
6495;SDS011;3281;47.658;9.166;2022-10-26T14:21:41;0.00;;;0.00;;
6495;SDS011;3281;47.658;9.166;2022-10-26T14:24:19;0.00;;;0.00;;
6495;SDS011;3281;47.658;9.166;2022-10-26T14:26:47;0.00;;;0.00;;
6495;SDS011;3281;47.658;9.166;2022-10-26T14:29:15;0.00;;;0.00;;
6495;SDS011;3281;47.658;9.166;2022-10-26T14:31:43;0.00;;;0.00;;
6495;SDS011;3281;47.658;9.166;2022-10-26T14:34:10;0.00;;;0.00;;
6495;SDS011;3281;47.658;9.166;2022-10-26T14:36:38;0.00;;;0.00;;
6495;SDS011;3281;47.658;9.166;2022-10-26T14:39:12;0.00;;;0.00;;
6495;SDS011;3281;47.658;9.166;2022-10-26T14:41:44;0.00;;;0.00;;
6495;SDS011;3281;47.658;9.166;2022-10-26T14:44:14;0.00;;;0.00;;
6495;SDS011;3281;47.658;9.166;2022-10-26T14:46:44;0.00;;;0.00;;
6495;SDS011;3281;47.658;9.166;2022-10-26T14:49:15;0.00;;;0.00;;
6495;SDS011;3281;47.658;9.166;2022-10-26T14:51:44;0.00;;;0.00;;
6495;SDS011;3281;47.658;9.166;2022-10-26T14:54:18;0.00;;;0.00;;
6495;SDS011;3281;47.658;9.166;2022-10-26T14:56:47;0.00;;;0.00;;
6495;SDS011;3281;47.658;9.166;2022-10-26T14:59:18;0.00;;;0.00;;
6495;SDS011;3281;47.658;9.166;2022-10-26T15:01:51;0.00;;;0.00;;
6495;SDS011;3281;47.658;9.166;2022-10-26T15:04:27;0.00;;;0.00;;
6495;SDS011;3281;47.658;9.166;2022-10-26T15:07:14;0.00;;;0.00;;
6495;SDS011;3281;47.658;9.166;2022-10-26T15:09:42;0.00;;;0.00;;
6495;SDS011;3281;47.658;9.166;2022-10-26T15:12:18;0.00;;;0.00;;
6495;SDS011;3281;47.658;9.166;2022-10-26T15:14:47;0.00;;;0.00;;
6495;SDS011;3281;47.658;9.166;2022-10-26T15:17:18;0.00;;;0.00;;
6495;SDS011;3281;47.658;9.166;2022-10-26T15:19:47;0.00;;;0.00;;
6495;SDS011;3281;47.658;9.166;2022-10-26T15:22:18;0.00;;;0.00;;
6495;SDS011;3281;47.658;9.166;2022-10-26T15:24:49;0.00;;;0.00;;
6495;SDS011;3281;47.658;9.166;2022-10-26T15:27:18;0.00;;;0.00;;
6495;SDS011;3281;47.658;9.166;2022-10-26T15:29:47;0.00;;;0.00;;
6495;SDS011;3281;47.658;9.166;2022-10-26T15:35:13;0.00;;;0.00;;
6495;SDS011;3281;47.658;9.166;2022-10-26T15:37:46;0.00;;;0.00;;
6495;SDS011;3281;47.658;9.166;2022-10-26T15:40:13;0.00;;;0.00;;
6495;SDS011;3281;47.658;9.166;2022-10-26T15:42:42;0.00;;;0.00;;
6495;SDS011;3281;47.658;9.166;2022-10-26T15:45:13;0.00;;;0.00;;
6495;SDS011;3281;47.658;9.166;2022-10-26T15:47:42;0.00;;;0.00;;
6495;SDS011;3281;47.658;9.166;2022-10-26T15:50:11;0.00;;;0.00;;
6495;SDS011;3281;47.658;9.166;2022-10-26T15:52:38;0.00;;;0.00;;
6495;SDS011;3281;47.658;9.166;2022-10-26T15:55:05;0.00;;;0.00;;
6495;SDS011;3281;47.658;9.166;2022-10-26T15:57:33;0.00;;;0.00;;
6495;SDS011;3281;47.658;9.166;2022-10-26T16:00:02;0.00;;;0.00;;
6495;SDS011;3281;47.658;9.166;2022-10-26T16:02:30;0.00;;;0.00;;